createdAt,value
2018-01-04T00:01:03.403Z,961.82
2018-01-04T00:02:13.123Z,961.92
2018-01-04T00:03:23.108Z,961.89
2018-01-04T00:04:33.091Z,961.87
2018-01-04T00:05:43.078Z,961.91
2018-01-04T00:06:52.803Z,961.9
2018-01-04T00:08:02.524Z,961.89
2018-01-04T00:09:12.539Z,961.93
2018-01-04T00:10:22.528Z,961.95
2018-01-04T00:11:32.252Z,961.9
2018-01-04T00:12:42.230Z,961.9
2018-01-04T00:13:52.215Z,961.88
2018-01-04T00:15:02.198Z,961.9
2018-01-04T00:16:12.188Z,961.86
2018-01-04T00:17:21.904Z,961.87
2018-01-04T00:18:31.886Z,961.86
2018-01-04T00:19:41.943Z,961.9
2018-01-04T00:20:51.929Z,961.93
2018-01-04T00:22:01.925Z,961.94
2018-01-04T00:23:11.909Z,962
2018-01-04T00:24:21.893Z,962
2018-01-04T00:25:31.878Z,962.05
2018-01-04T00:26:41.860Z,962.07
2018-01-04T00:27:51.899Z,962.08
2018-01-04T00:29:01.622Z,962.06
2018-01-04T00:30:11.614Z,962.1
2018-01-04T00:31:21.608Z,962.08
2018-01-04T00:32:31.589Z,962.15
2018-01-04T00:33:41.310Z,962.11
2018-01-04T00:34:51.311Z,962.17
2018-01-04T00:36:01.297Z,962.11
2018-01-04T00:37:11.532Z,962.16
2018-01-04T00:38:21.246Z,962.07
2018-01-04T00:39:30.708Z,962.09
2018-01-04T00:40:40.695Z,962.09
2018-01-04T00:41:50.410Z,962.1
2018-01-04T00:43:02.130Z,962.08
2018-01-04T00:44:12.119Z,962.07
2018-01-04T00:45:21.837Z,962.08
2018-01-04T00:46:31.821Z,962.07
2018-01-04T00:47:41.808Z,962.07
2018-01-04T00:48:51.793Z,962.07
2018-01-04T00:50:01.772Z,962.1
2018-01-04T00:51:11.763Z,962.12
2018-01-04T00:52:21.750Z,962.08
2018-01-04T00:53:31.735Z,962.14
2018-01-04T00:54:41.195Z,962.16
2018-01-04T00:55:51.190Z,962.14
2018-01-04T00:57:01.170Z,962.12
2018-01-04T00:58:11.168Z,962.15
2018-01-04T00:59:21.158Z,962.15
2018-01-04T01:00:30.393Z,962.14
2018-01-04T01:01:40.378Z,962.15
2018-01-04T01:02:50.359Z,962.21
2018-01-04T01:04:00.343Z,962.19
2018-01-04T01:05:10.333Z,962.21
2018-01-04T01:06:19.784Z,962.23
2018-01-04T01:07:28.972Z,962.21
2018-01-04T01:08:38.956Z,962.25
2018-01-04T01:09:48.940Z,962.24
2018-01-04T01:10:58.923Z,962.25
2018-01-04T01:12:08.911Z,962.24
2018-01-04T01:13:18.632Z,962.28
2018-01-04T01:14:28.618Z,962.25
2018-01-04T01:15:38.602Z,962.25
2018-01-04T01:16:48.595Z,962.26
2018-01-04T01:17:58.582Z,962.25
2018-01-04T01:19:08.619Z,962.25
2018-01-04T01:20:18.606Z,962.31
2018-01-04T01:21:28.593Z,962.3
2018-01-04T01:22:38.572Z,962.33
2018-01-04T01:23:50.559Z,962.3
2018-01-04T01:25:00.545Z,962.33
2018-01-04T01:26:10.536Z,962.27
2018-01-04T01:27:19.724Z,962.31
2018-01-04T01:28:29.714Z,962.3
2018-01-04T01:29:39.694Z,962.3
2018-01-04T01:30:49.675Z,962.34
2018-01-04T01:31:59.658Z,962.36
2018-01-04T01:33:09.378Z,962.33
2018-01-04T01:34:19.094Z,962.4
2018-01-04T01:35:29.082Z,962.35
2018-01-04T01:36:39.060Z,962.33
2018-01-04T01:37:48.784Z,962.33
2018-01-04T01:38:58.505Z,962.32
2018-01-04T01:40:08.225Z,962.31
2018-01-04T01:41:17.948Z,962.33
2018-01-04T01:42:27.665Z,962.32
2018-01-04T01:43:37.382Z,962.31
2018-01-04T01:44:47.108Z,962.32
2018-01-04T01:45:57.095Z,962.35
2018-01-04T01:47:06.814Z,962.36
2018-01-04T01:48:16.568Z,962.38
2018-01-04T01:49:26.029Z,962.34
2018-01-04T01:50:36.021Z,962.35
2018-01-04T01:51:45.476Z,962.35
2018-01-04T01:52:55.507Z,962.38
2018-01-04T01:54:05.490Z,962.4
2018-01-04T01:55:15.531Z,962.38
2018-01-04T01:56:25.516Z,962.46
2018-01-04T01:57:35.504Z,962.41
2018-01-04T01:58:45.225Z,962.44
2018-01-04T01:59:55.208Z,962.46
2018-01-04T02:01:05.218Z,962.43
2018-01-04T02:02:14.937Z,962.42
2018-01-04T02:03:24.931Z,962.42
2018-01-04T02:04:34.655Z,962.38
2018-01-04T02:05:44.642Z,962.4
2018-01-04T02:06:54.363Z,962.45
2018-01-04T02:08:03.818Z,962.41
2018-01-04T02:09:13.804Z,962.45
2018-01-04T02:10:23.783Z,962.43
2018-01-04T02:11:33.776Z,962.47
2018-01-04T02:12:43.761Z,962.51
2018-01-04T02:13:53.214Z,962.49
2018-01-04T02:15:03.202Z,962.48
2018-01-04T02:16:13.186Z,962.48
2018-01-04T02:17:23.169Z,962.48
2018-01-04T02:18:32.893Z,962.43
2018-01-04T02:19:42.878Z,962.49
2018-01-04T02:20:52.871Z,962.45
2018-01-04T02:22:02.587Z,962.44
2018-01-04T02:23:12.578Z,962.45
2018-01-04T02:24:22.299Z,962.44
2018-01-04T02:25:32.031Z,962.49
2018-01-04T02:26:42.051Z,962.53
2018-01-04T02:27:52.029Z,962.49
2018-01-04T02:29:02.014Z,962.52
2018-01-04T02:30:11.999Z,962.53
2018-01-04T02:31:21.201Z,962.52
2018-01-04T02:32:31.196Z,962.49
2018-01-04T02:33:41.245Z,962.49
2018-01-04T02:34:51.236Z,962.49
2018-01-04T02:36:01.241Z,962.41
2018-01-04T02:37:11.228Z,962.47
2018-01-04T02:38:21.245Z,962.45
2018-01-04T02:39:30.961Z,962.45
2018-01-04T02:40:40.682Z,962.48
2018-01-04T02:41:50.402Z,962.44
2018-01-04T02:43:00.401Z,962.38
2018-01-04T02:44:10.397Z,962.46
2018-01-04T02:45:19.860Z,962.51
2018-01-04T02:46:29.847Z,962.52
2018-01-04T02:47:39.834Z,962.47
2018-01-04T02:48:49.303Z,962.45
2018-01-04T02:49:59.293Z,962.5
2018-01-04T02:51:09.284Z,962.51
2018-01-04T02:52:19.006Z,962.54
2018-01-04T02:53:28.995Z,962.5
2018-01-04T02:54:38.977Z,962.52
2018-01-04T02:55:48.706Z,962.49
2018-01-04T02:56:58.710Z,962.46
2018-01-04T02:58:08.712Z,962.46
2018-01-04T02:59:18.703Z,962.41
2018-01-04T03:00:28.428Z,962.44
2018-01-04T03:01:38.143Z,962.41
2018-01-04T03:02:48.125Z,962.41
2018-01-04T03:03:58.111Z,962.43
2018-01-04T03:05:08.100Z,962.4
2018-01-04T03:06:17.818Z,962.44
2018-01-04T03:07:27.269Z,962.37
2018-01-04T03:08:37.026Z,962.37
2018-01-04T03:09:47.010Z,962.38
2018-01-04T03:10:56.999Z,962.36
2018-01-04T03:12:06.989Z,962.34
2018-01-04T03:13:16.706Z,962.34
2018-01-04T03:14:26.695Z,962.35
2018-01-04T03:15:36.678Z,962.34
2018-01-04T03:16:46.667Z,962.39
2018-01-04T03:17:56.654Z,962.41
2018-01-04T03:19:06.638Z,962.37
2018-01-04T03:20:20.378Z,962.36
2018-01-04T03:21:30.431Z,962.38
2018-01-04T03:22:40.422Z,962.36
2018-01-04T03:23:50.406Z,962.34
2018-01-04T03:25:00.394Z,962.35
2018-01-04T03:26:10.111Z,962.34
2018-01-04T03:27:19.562Z,962.37
2018-01-04T03:28:29.551Z,962.38
2018-01-04T03:29:39.536Z,962.41
2018-01-04T03:30:49.255Z,962.42
2018-01-04T03:31:58.983Z,962.4
2018-01-04T03:33:08.174Z,962.43
2018-01-04T03:34:18.157Z,962.44
2018-01-04T03:35:27.343Z,962.46
2018-01-04T03:36:37.067Z,962.42
2018-01-04T03:37:47.053Z,962.43
2018-01-04T03:38:57.036Z,962.44
2018-01-04T03:40:07.022Z,962.44
2018-01-04T03:41:16.742Z,962.44
2018-01-04T03:42:26.724Z,962.49
2018-01-04T03:43:36.759Z,962.48
2018-01-04T03:44:46.737Z,962.46
2018-01-04T03:45:56.498Z,962.43
2018-01-04T03:47:06.482Z,962.45
2018-01-04T03:48:16.465Z,962.42
2018-01-04T03:49:26.195Z,962.43
2018-01-04T03:50:35.922Z,962.44
2018-01-04T03:51:45.907Z,962.41
2018-01-04T03:52:55.900Z,962.43
2018-01-04T03:54:05.883Z,962.4
2018-01-04T03:55:15.605Z,962.42
2018-01-04T03:56:25.321Z,962.45
2018-01-04T03:57:35.309Z,962.47
2018-01-04T03:58:45.311Z,962.48
2018-01-04T03:59:55.295Z,962.56
2018-01-04T04:05:08.578Z,962.57
2018-01-04T04:06:18.032Z,962.55
2018-01-04T04:07:28.019Z,962.49
2018-01-04T04:08:38.002Z,962.54
2018-01-04T04:09:47.722Z,962.56
2018-01-04T04:10:57.441Z,962.56
2018-01-04T04:12:07.427Z,962.55
2018-01-04T04:13:17.410Z,962.55
2018-01-04T04:14:27.393Z,962.54
2018-01-04T04:15:37.107Z,962.55
2018-01-04T04:16:47.088Z,962.49
2018-01-04T04:17:56.812Z,962.5
2018-01-04T04:19:06.791Z,962.5
2018-01-04T04:20:16.516Z,962.54
2018-01-04T04:21:26.238Z,962.56
2018-01-04T04:22:36.229Z,962.58
2018-01-04T04:23:46.214Z,962.64
2018-01-04T04:24:56.194Z,962.58
2018-01-04T04:26:06.242Z,962.66
2018-01-04T04:27:15.697Z,962.65
2018-01-04T04:28:25.686Z,962.64
2018-01-04T04:29:35.681Z,962.68
2018-01-04T04:30:45.664Z,962.67
2018-01-04T04:31:55.649Z,962.69
2018-01-04T04:33:05.638Z,962.71
2018-01-04T04:34:15.356Z,962.76
2018-01-04T04:35:25.353Z,962.73
2018-01-04T04:36:35.339Z,962.72
2018-01-04T04:37:45.324Z,962.71
2018-01-04T04:38:55.309Z,962.73
2018-01-04T04:40:05.295Z,962.7
2018-01-04T04:41:15.013Z,962.71
2018-01-04T04:42:24.198Z,962.7
2018-01-04T04:43:34.188Z,962.69
2018-01-04T04:44:44.170Z,962.71
2018-01-04T04:45:54.151Z,962.69
2018-01-04T04:47:04.131Z,962.7
2018-01-04T04:48:14.112Z,962.67
2018-01-04T04:49:23.832Z,962.72
2018-01-04T04:50:33.818Z,962.69
2018-01-04T04:51:43.799Z,962.65
2018-01-04T04:52:53.780Z,962.74
2018-01-04T04:54:03.531Z,962.7
2018-01-04T04:55:13.519Z,962.71
2018-01-04T04:56:23.239Z,962.73
2018-01-04T04:57:33.222Z,962.77
2018-01-04T04:58:43.202Z,962.79
2018-01-04T04:59:53.195Z,962.72
2018-01-04T05:01:03.177Z,962.73
2018-01-04T05:02:12.633Z,962.71
2018-01-04T05:03:22.613Z,962.74
2018-01-04T05:04:32.337Z,962.7
2018-01-04T05:05:42.054Z,962.73
2018-01-04T05:06:51.779Z,962.73
2018-01-04T05:08:01.508Z,962.77
2018-01-04T05:09:11.497Z,962.75
2018-01-04T05:10:21.500Z,962.77
2018-01-04T05:11:31.486Z,962.76
2018-01-04T05:12:41.468Z,962.77
2018-01-04T05:13:51.453Z,962.77
2018-01-04T05:15:01.170Z,962.76
2018-01-04T05:16:11.153Z,962.78
2018-01-04T05:17:21.135Z,962.78
2018-01-04T05:18:31.115Z,962.76
2018-01-04T05:19:41.152Z,962.76
2018-01-04T05:20:51.142Z,962.78
2018-01-04T05:22:01.138Z,962.71
2018-01-04T05:23:11.119Z,962.74
2018-01-04T05:24:21.101Z,962.75
2018-01-04T05:25:31.085Z,962.78
2018-01-04T05:26:41.066Z,962.76
2018-01-04T05:27:51.044Z,962.75
2018-01-04T05:29:00.761Z,962.79
2018-01-04T05:30:10.752Z,962.79
2018-01-04T05:31:20.471Z,962.76
2018-01-04T05:32:30.456Z,962.79
2018-01-04T05:33:40.440Z,962.75
2018-01-04T05:34:50.439Z,962.75
2018-01-04T05:36:00.156Z,962.84
2018-01-04T05:37:10.141Z,962.8
2018-01-04T05:38:20.124Z,962.8
2018-01-04T05:39:30.111Z,962.79
2018-01-04T05:40:40.108Z,962.79
2018-01-04T05:41:49.855Z,962.79
2018-01-04T05:42:59.837Z,962.77
2018-01-04T05:44:09.819Z,962.81
2018-01-04T05:45:19.806Z,962.76
2018-01-04T05:46:29.786Z,962.79
2018-01-04T05:47:39.769Z,962.78
2018-01-04T05:48:49.750Z,962.8
2018-01-04T05:49:59.765Z,962.79
2018-01-04T05:51:09.755Z,962.82
2018-01-04T05:52:19.477Z,962.79
2018-01-04T05:53:29.195Z,962.81
2018-01-04T05:54:38.910Z,962.79
2018-01-04T05:55:48.897Z,962.79
2018-01-04T05:56:58.614Z,962.82
2018-01-04T05:58:08.600Z,962.82
2018-01-04T05:59:18.584Z,962.84
2018-01-04T06:00:28.568Z,962.81
2018-01-04T06:01:38.546Z,962.82
2018-01-04T06:02:48.527Z,962.79
2018-01-04T06:03:58.246Z,962.8
2018-01-04T06:05:08.237Z,962.78
2018-01-04T06:06:18.221Z,962.84
2018-01-04T06:07:28.202Z,962.82
2018-01-04T06:08:38.184Z,962.79
2018-01-04T06:09:48.200Z,962.77
2018-01-04T06:10:57.653Z,962.75
2018-01-04T06:12:07.643Z,962.78
2018-01-04T06:13:17.099Z,962.8
2018-01-04T06:14:27.082Z,962.79
2018-01-04T06:15:37.070Z,962.79
2018-01-04T06:16:47.082Z,962.78
2018-01-04T06:17:56.807Z,962.82
2018-01-04T06:19:06.265Z,962.84
2018-01-04T06:20:16.250Z,962.87
2018-01-04T06:21:26.230Z,962.86
2018-01-04T06:22:36.219Z,962.87
2018-01-04T06:23:45.938Z,962.86
2018-01-04T06:24:55.921Z,962.88
2018-01-04T06:26:05.375Z,962.9
2018-01-04T06:27:15.359Z,962.9
2018-01-04T06:28:25.339Z,962.85
2018-01-04T06:29:35.322Z,962.85
2018-01-04T06:30:45.305Z,962.89
2018-01-04T06:31:55.298Z,962.85
2018-01-04T06:33:05.301Z,962.87
2018-01-04T06:34:15.288Z,962.87
2018-01-04T06:35:25.006Z,962.87
2018-01-04T06:36:34.991Z,962.87
2018-01-04T06:37:44.978Z,962.9
2018-01-04T06:38:54.700Z,962.9
2018-01-04T06:40:04.178Z,962.93
2018-01-04T06:41:14.174Z,962.9
2018-01-04T06:42:24.240Z,962.91
2018-01-04T06:43:34.220Z,962.93
2018-01-04T06:44:44.207Z,962.99
2018-01-04T06:45:54.204Z,962.97
2018-01-04T06:47:04.191Z,962.95
2018-01-04T06:48:13.379Z,962.97
2018-01-04T06:49:23.098Z,963.02
2018-01-04T06:50:32.552Z,963.01
2018-01-04T06:51:42.539Z,963.05
2018-01-04T06:52:52.528Z,963.04
2018-01-04T06:54:02.517Z,963.02
2018-01-04T06:55:12.511Z,962.99
2018-01-04T06:56:22.489Z,963.06
2018-01-04T06:57:32.220Z,963.05
2018-01-04T06:58:42.208Z,963.05
2018-01-04T06:59:52.190Z,963.06
2018-01-04T07:01:01.907Z,963.02
2018-01-04T07:02:11.892Z,963.08
2018-01-04T07:03:21.671Z,963.05
2018-01-04T07:04:31.823Z,963.06
2018-01-04T07:05:41.939Z,963.07
2018-01-04T07:06:51.397Z,963.08
2018-01-04T07:08:01.390Z,963.09
2018-01-04T07:09:11.108Z,963.11
2018-01-04T07:10:21.093Z,963.08
2018-01-04T07:11:30.544Z,963.1
2018-01-04T07:12:40.262Z,963.09
2018-01-04T07:13:50.025Z,963.1
2018-01-04T07:15:00.023Z,963.09
2018-01-04T07:16:10.018Z,963.06
2018-01-04T07:17:19.733Z,963.11
2018-01-04T07:18:29.721Z,963.11
2018-01-04T07:19:39.700Z,963.12
2018-01-04T07:20:49.688Z,963.13
2018-01-04T07:21:59.682Z,963.11
2018-01-04T07:23:09.667Z,963.09
2018-01-04T07:24:19.380Z,963.1
2018-01-04T07:25:29.364Z,963.07
2018-01-04T07:26:39.084Z,963.09
2018-01-04T07:27:49.113Z,963.07
2018-01-04T07:28:59.096Z,963.13
2018-01-04T07:30:09.083Z,963.14
2018-01-04T07:31:19.073Z,963.15
2018-01-04T07:32:29.059Z,963.17
2018-01-04T07:33:39.055Z,963.16
2018-01-04T07:34:48.508Z,963.13
2018-01-04T07:35:58.523Z,963.19
2018-01-04T07:37:08.245Z,963.2
2018-01-04T07:38:17.704Z,963.21
2018-01-04T07:39:27.733Z,963.22
2018-01-04T07:40:37.451Z,963.22
2018-01-04T07:41:47.507Z,963.19
2018-01-04T07:42:57.564Z,963.21
2018-01-04T07:44:07.552Z,963.19
2018-01-04T07:45:17.539Z,963.21
2018-01-04T07:46:27.523Z,963.27
2018-01-04T07:47:37.517Z,963.25
2018-01-04T07:48:47.557Z,963.32
2018-01-04T07:49:57.653Z,963.29
2018-01-04T07:51:07.748Z,963.32
2018-01-04T07:52:17.202Z,963.31
2018-01-04T07:53:27.188Z,963.29
2018-01-04T07:54:36.912Z,963.29
2018-01-04T07:55:46.631Z,963.28
2018-01-04T07:56:56.623Z,963.28
2018-01-04T07:58:06.622Z,963.32
2018-01-04T07:59:16.613Z,963.27
2018-01-04T08:00:26.331Z,963.26
2018-01-04T08:01:36.323Z,963.25
2018-01-04T08:02:46.312Z,963.3
2018-01-04T08:03:56.297Z,963.3
2018-01-04T08:05:06.054Z,963.31
2018-01-04T08:06:15.793Z,963.28
2018-01-04T08:07:25.838Z,963.33
2018-01-04T08:08:35.822Z,963.26
2018-01-04T08:09:45.538Z,963.26
2018-01-04T08:10:55.524Z,963.23
2018-01-04T08:12:05.512Z,963.24
2018-01-04T08:13:15.496Z,963.26
2018-01-04T08:14:25.486Z,963.2
2018-01-04T08:15:35.212Z,963.2
2018-01-04T08:16:44.961Z,963.25
2018-01-04T08:17:54.942Z,963.22
2018-01-04T08:19:04.663Z,963.26
2018-01-04T08:20:14.387Z,963.31
2018-01-04T08:21:24.369Z,963.36
2018-01-04T08:22:34.368Z,963.39
2018-01-04T08:23:44.084Z,963.39
2018-01-04T08:24:54.067Z,963.43
2018-01-04T08:26:04.054Z,963.42
2018-01-04T08:27:14.048Z,963.4
2018-01-04T08:28:23.237Z,963.39
2018-01-04T08:29:33.223Z,963.39
2018-01-04T08:30:43.205Z,963.4
2018-01-04T08:31:53.195Z,963.38
2018-01-04T08:33:03.199Z,963.37
2018-01-04T08:34:12.919Z,963.37
2018-01-04T08:35:22.646Z,963.37
2018-01-04T08:36:32.631Z,963.33
2018-01-04T08:37:42.616Z,963.37
2018-01-04T08:38:52.606Z,963.37
2018-01-04T08:40:02.329Z,963.37
2018-01-04T08:41:12.315Z,963.35
2018-01-04T08:42:22.042Z,963.38
2018-01-04T08:43:32.033Z,963.41
2018-01-04T08:44:42.054Z,963.39
2018-01-04T08:45:52.104Z,963.39
2018-01-04T08:47:02.102Z,963.43
2018-01-04T08:48:11.827Z,963.43
2018-01-04T08:49:21.279Z,963.46
2018-01-04T08:50:31.266Z,963.44
2018-01-04T08:51:41.253Z,963.43
2018-01-04T08:52:51.047Z,963.4
2018-01-04T08:54:01.029Z,963.47
2018-01-04T08:55:11.021Z,963.47
2018-01-04T08:56:21.001Z,963.45
2018-01-04T08:57:30.983Z,963.44
2018-01-04T08:58:40.445Z,963.4
2018-01-04T08:59:50.438Z,963.43
2018-01-04T09:01:00.161Z,963.43
2018-01-04T09:02:10.145Z,963.45
2018-01-04T09:03:19.334Z,963.47
2018-01-04T09:04:29.316Z,963.49
2018-01-04T09:05:39.305Z,963.44
2018-01-04T09:06:49.305Z,963.44
2018-01-04T09:07:59.023Z,963.5
2018-01-04T09:09:08.747Z,963.46
2018-01-04T09:10:18.464Z,963.48
2018-01-04T09:11:28.182Z,963.47
2018-01-04T09:12:38.167Z,963.43
2018-01-04T09:13:48.156Z,963.48
2018-01-04T09:14:58.167Z,963.45
2018-01-04T09:16:08.153Z,963.48
2018-01-04T09:17:17.610Z,963.55
2018-01-04T09:18:29.601Z,963.5
2018-01-04T09:19:39.397Z,963.49
2018-01-04T09:20:49.113Z,963.55
2018-01-04T09:21:59.096Z,963.52
2018-01-04T09:23:08.820Z,963.53
2018-01-04T09:24:18.811Z,963.52
2018-01-04T09:25:28.792Z,963.56
2018-01-04T09:26:38.784Z,963.52
2018-01-04T09:27:48.509Z,963.52
2018-01-04T09:28:58.534Z,963.63
2018-01-04T09:30:08.526Z,963.62
2018-01-04T09:31:18.536Z,963.56
2018-01-04T09:32:28.253Z,963.58
2018-01-04T09:33:38.240Z,963.62
2018-01-04T09:34:48.270Z,963.55
2018-01-04T09:35:58.252Z,963.64
2018-01-04T09:37:07.974Z,963.63
2018-01-04T09:38:17.969Z,963.69
2018-01-04T09:39:27.952Z,963.68
2018-01-04T09:40:37.936Z,963.7
2018-01-04T09:41:47.984Z,963.66
2018-01-04T09:42:57.971Z,963.68
2018-01-04T09:44:07.955Z,963.71
2018-01-04T09:45:17.677Z,963.67
2018-01-04T09:46:27.393Z,963.65
2018-01-04T09:47:37.123Z,963.62
2018-01-04T09:48:47.111Z,963.62
2018-01-04T09:49:57.102Z,963.58
2018-01-04T09:51:07.093Z,963.61
2018-01-04T09:52:16.810Z,963.59
2018-01-04T09:53:26.944Z,963.56
2018-01-04T09:54:36.659Z,963.52
2018-01-04T09:55:46.382Z,963.52
2018-01-04T09:56:56.104Z,963.5
2018-01-04T09:58:06.101Z,963.47
2018-01-04T09:59:15.870Z,963.49
2018-01-04T10:00:25.584Z,963.52
2018-01-04T10:01:35.576Z,963.54
2018-01-04T10:02:45.292Z,963.6
2018-01-04T10:03:55.278Z,963.62
2018-01-04T10:05:04.736Z,963.63
2018-01-04T10:06:14.192Z,963.63
2018-01-04T10:07:23.916Z,963.63
2018-01-04T10:08:33.901Z,963.67
2018-01-04T10:09:43.893Z,963.64
2018-01-04T10:10:53.969Z,963.59
2018-01-04T10:12:03.688Z,963.55
2018-01-04T10:13:13.413Z,963.53
2018-01-04T10:14:23.404Z,963.52
2018-01-04T10:15:33.122Z,963.5
2018-01-04T10:16:42.847Z,963.5
2018-01-04T10:17:52.325Z,963.47
2018-01-04T10:19:02.310Z,963.53
2018-01-04T10:20:12.303Z,963.45
2018-01-04T10:21:22.014Z,963.46
2018-01-04T10:22:32.001Z,963.42
2018-01-04T10:23:41.992Z,963.47
2018-01-04T10:24:51.974Z,963.48
2018-01-04T10:26:01.966Z,963.41
2018-01-04T10:27:11.684Z,963.42
2018-01-04T10:28:21.733Z,963.48
2018-01-04T10:29:31.454Z,963.43
2018-01-04T10:30:41.438Z,963.36
2018-01-04T10:31:51.423Z,963.39
2018-01-04T10:33:01.147Z,963.38
2018-01-04T10:34:11.134Z,963.35
2018-01-04T10:35:21.116Z,963.39
2018-01-04T10:36:31.107Z,963.41
2018-01-04T10:37:41.097Z,963.41
2018-01-04T10:38:51.139Z,963.38
2018-01-04T10:40:01.123Z,963.4
2018-01-04T10:41:10.913Z,963.37
2018-01-04T10:42:20.645Z,963.38
2018-01-04T10:43:30.628Z,963.39
2018-01-04T10:44:40.352Z,963.35
2018-01-04T10:45:50.339Z,963.33
2018-01-04T10:47:00.324Z,963.4
2018-01-04T10:48:10.312Z,963.36
2018-01-04T10:49:20.035Z,963.36
2018-01-04T10:50:30.026Z,963.38
2018-01-04T10:51:39.749Z,963.37
2018-01-04T10:52:49.735Z,963.34
2018-01-04T10:53:59.717Z,963.37
2018-01-04T10:55:09.437Z,963.39
2018-01-04T10:56:19.488Z,963.34
2018-01-04T10:57:29.482Z,963.32
2018-01-04T10:58:38.942Z,963.24
2018-01-04T10:59:48.927Z,963.25
2018-01-04T11:00:58.648Z,963.24
2018-01-04T11:02:08.371Z,963.21
2018-01-04T11:03:20.099Z,963.15
2018-01-04T11:04:30.092Z,963.16
2018-01-04T11:05:40.077Z,963.19
2018-01-04T11:06:50.060Z,963.09
2018-01-04T11:08:00.048Z,963.11
2018-01-04T11:09:10.033Z,963.17
2018-01-04T11:10:20.018Z,963.16
2018-01-04T11:11:30.014Z,963.12
2018-01-04T11:12:38.997Z,963.13
2018-01-04T11:13:49.032Z,963.17
2018-01-04T11:14:58.761Z,963.16
2018-01-04T11:16:08.495Z,963.1
2018-01-04T11:17:18.214Z,963.11
2018-01-04T11:18:28.060Z,963.13
2018-01-04T11:19:37.527Z,963.18
2018-01-04T11:20:47.525Z,963.14
2018-01-04T11:21:57.245Z,963.09
2018-01-04T11:23:06.968Z,963.09
2018-01-04T11:24:16.701Z,963.07
2018-01-04T11:25:26.693Z,963.1
2018-01-04T11:26:36.684Z,963.17
2018-01-04T11:27:46.406Z,963.18
2018-01-04T11:28:56.433Z,963.18
2018-01-04T11:30:05.943Z,963.1
2018-01-04T11:31:15.678Z,963.17
2018-01-04T11:32:25.669Z,963.1
2018-01-04T11:33:35.397Z,963.1
2018-01-04T11:34:45.381Z,963.13
2018-01-04T11:35:55.369Z,963.16
2018-01-04T11:37:05.089Z,963.12
2018-01-04T11:38:15.080Z,963.05
2018-01-04T11:39:24.796Z,963.08
2018-01-04T11:40:34.785Z,963.14
2018-01-04T11:41:44.518Z,963.13
2018-01-04T11:42:54.509Z,963.08
2018-01-04T11:44:04.500Z,963.07
2018-01-04T11:45:14.535Z,963.08
2018-01-04T11:46:23.991Z,963.07
2018-01-04T11:47:33.975Z,963.07
2018-01-04T11:48:43.714Z,963.04
2018-01-04T11:49:53.442Z,963.01
2018-01-04T11:51:03.164Z,962.98
2018-01-04T11:52:12.886Z,962.98
2018-01-04T11:53:22.988Z,962.98
2018-01-04T11:54:32.977Z,963
2018-01-04T11:55:42.430Z,963.04
2018-01-04T11:56:52.419Z,963.04
2018-01-04T11:58:02.148Z,963.03
2018-01-04T11:59:12.139Z,962.94
2018-01-04T12:00:22.136Z,962.9
2018-01-04T12:01:31.862Z,962.93
2018-01-04T12:02:41.856Z,962.93
2018-01-04T12:03:51.574Z,962.95
2018-01-04T12:05:01.030Z,962.96
2018-01-04T12:06:11.021Z,962.95
2018-01-04T12:07:20.740Z,962.92
2018-01-04T12:08:30.760Z,962.93
2018-01-04T12:09:40.498Z,962.92
2018-01-04T12:10:50.489Z,962.99
2018-01-04T12:12:00.216Z,963
2018-01-04T12:13:10.206Z,962.96
2018-01-04T12:14:19.931Z,962.97
2018-01-04T12:15:29.670Z,962.96
2018-01-04T12:16:39.392Z,962.94
2018-01-04T12:17:49.378Z,962.93
2018-01-04T12:18:59.381Z,962.91
2018-01-04T12:20:08.840Z,962.93
2018-01-04T12:21:18.564Z,962.97
2018-01-04T12:22:28.553Z,962.95
2018-01-04T12:23:38.276Z,962.92
2018-01-04T12:24:48.261Z,962.92
2018-01-04T12:25:58.363Z,962.92
2018-01-04T12:27:08.358Z,962.88
2018-01-04T12:28:18.082Z,962.87
2018-01-04T12:29:27.804Z,962.84
2018-01-04T12:30:37.530Z,962.88
2018-01-04T12:31:47.530Z,962.88
2018-01-04T12:32:57.258Z,962.87
2018-01-04T12:34:07.246Z,962.91
2018-01-04T12:35:16.967Z,962.87
2018-01-04T12:36:26.690Z,962.85
2018-01-04T12:37:36.414Z,962.88
2018-01-04T12:38:46.134Z,962.89
2018-01-04T12:39:56.118Z,962.85
2018-01-04T12:41:06.113Z,962.87
2018-01-04T12:42:16.106Z,962.84
2018-01-04T12:43:26.096Z,962.83
2018-01-04T12:44:36.089Z,962.86
2018-01-04T12:45:46.074Z,962.83
2018-01-04T12:46:56.057Z,962.82
2018-01-04T12:48:05.787Z,962.79
2018-01-04T12:49:15.771Z,962.78
2018-01-04T12:50:25.488Z,962.77
2018-01-04T12:51:35.482Z,962.78
2018-01-04T12:52:45.471Z,962.75
2018-01-04T12:53:55.246Z,962.8
2018-01-04T12:55:05.235Z,962.75
2018-01-04T12:56:15.223Z,962.75
2018-01-04T12:57:25.203Z,962.76
2018-01-04T12:58:35.193Z,962.78
2018-01-04T12:59:45.529Z,962.78
2018-01-04T13:00:55.254Z,962.77
2018-01-04T13:02:04.718Z,962.78
2018-01-04T13:03:14.707Z,962.79
2018-01-04T13:04:24.698Z,962.87
2018-01-04T13:05:38.153Z,962.85
2018-01-04T13:06:48.142Z,962.85
2018-01-04T13:07:58.163Z,962.86
2018-01-04T13:09:08.148Z,962.85
2018-01-04T13:10:17.868Z,962.82
2018-01-04T13:11:27.864Z,962.8
2018-01-04T13:12:37.587Z,962.82
2018-01-04T13:13:47.572Z,962.83
2018-01-04T13:14:57.289Z,962.79
2018-01-04T13:16:07.279Z,962.79
2018-01-04T13:17:16.738Z,962.77
2018-01-04T13:18:26.458Z,962.72
2018-01-04T13:19:36.448Z,962.73
2018-01-04T13:20:46.171Z,962.7
2018-01-04T13:21:56.170Z,962.67
2018-01-04T13:23:06.160Z,962.7
2018-01-04T13:24:16.145Z,962.72
2018-01-04T13:25:26.132Z,962.72
2018-01-04T13:26:35.868Z,962.71
2018-01-04T13:27:45.852Z,962.74
2018-01-04T13:28:55.840Z,962.73
2018-01-04T13:30:05.875Z,962.73
2018-01-04T13:31:15.333Z,962.78
2018-01-04T13:32:25.374Z,962.74
2018-01-04T13:33:35.099Z,962.73
2018-01-04T13:34:44.948Z,962.74
2018-01-04T13:35:54.937Z,962.77
2018-01-04T13:37:04.924Z,962.74
2018-01-04T13:38:14.391Z,962.7
2018-01-04T13:39:24.374Z,962.7
2018-01-04T13:40:33.827Z,962.68
2018-01-04T13:41:43.816Z,962.71
2018-01-04T13:42:53.798Z,962.69
2018-01-04T13:44:03.778Z,962.63
2018-01-04T13:45:13.504Z,962.66
2018-01-04T13:46:23.488Z,962.69
2018-01-04T13:47:33.211Z,962.68
2018-01-04T13:48:42.668Z,962.63
2018-01-04T13:49:52.396Z,962.66
2018-01-04T13:51:02.382Z,962.68
2018-01-04T13:52:12.255Z,962.7
2018-01-04T13:53:22.253Z,962.71
2018-01-04T13:54:31.705Z,962.71
2018-01-04T13:55:41.424Z,962.68
2018-01-04T13:56:51.139Z,962.65
2018-01-04T13:58:01.123Z,962.67
2018-01-04T13:59:11.107Z,962.66
2018-01-04T14:00:21.090Z,962.63
2018-01-04T14:01:31.530Z,962.62
2018-01-04T14:02:41.518Z,962.63
2018-01-04T14:03:51.248Z,962.63
2018-01-04T14:05:00.968Z,962.64
2018-01-04T14:06:10.690Z,962.64
2018-01-04T14:07:20.690Z,962.61
2018-01-04T14:08:30.409Z,962.64
2018-01-04T14:09:39.865Z,962.65
2018-01-04T14:10:49.849Z,962.6
2018-01-04T14:11:59.836Z,962.64
2018-01-04T14:13:09.555Z,962.63
2018-01-04T14:14:19.287Z,962.59
2018-01-04T14:15:29.013Z,962.6
2018-01-04T14:16:38.999Z,962.58
2018-01-04T14:17:48.985Z,962.6
2018-01-04T14:18:58.970Z,962.56
2018-01-04T14:20:08.425Z,962.53
2018-01-04T14:21:18.458Z,962.56
2018-01-04T14:22:27.660Z,962.62
2018-01-04T14:23:37.383Z,962.62
2018-01-04T14:24:47.442Z,962.61
2018-01-04T14:25:57.162Z,962.58
2018-01-04T14:27:06.881Z,962.63
2018-01-04T14:28:16.601Z,962.62
2018-01-04T14:29:26.584Z,962.62
2018-01-04T14:30:36.672Z,962.63
2018-01-04T14:31:46.673Z,962.67
2018-01-04T14:32:56.399Z,962.66
2018-01-04T14:34:05.861Z,962.63
2018-01-04T14:35:15.845Z,962.68
2018-01-04T14:36:25.564Z,962.63
2018-01-04T14:37:35.286Z,962.64
2018-01-04T14:38:45.555Z,962.6
2018-01-04T14:39:55.541Z,962.63